Time;durP1;ratioP1;P1;durP2;ratioP2;P2;SDS_P1;SDS_P2;PMS_P1;PMS_P2;Temp;Humidity;BMP_temperature;BMP_pressure;BME280_temperature;BME280_humidity;BME280_pressure;Samples;Min_cycle;Max_cycle;Signal;HPM_P1;HPM_P2
2022/12/21 00:35:27;;;;;;;34.75;20.30;;;;;;;5.40;100.00;100442.06;4986628;28;20172;-64
2022/12/21 00:42:14;;;;;;;40.55;21.80;;;;;;;5.49;100.00;100437.34;4986774;28;20104;-65
2022/12/21 00:57:37;;;;;;;36.03;21.27;;;;;;;5.45;100.00;100437.50;4983990;28;20045;-66
2022/12/21 01:08:50;;;;;;;36.17;19.88;;;;;;;5.42;100.00;100430.66;4978978;28;20541;-64
2022/12/21 01:32:51;;;;;;;32.70;21.30;;;;;;;5.33;100.00;100425.81;4987660;28;20046;-63
2022/12/21 01:48:44;;;;;;;41.88;22.98;;;;;;;5.32;100.00;100411.06;4990751;28;20049;-65
2022/12/21 02:00:03;;;;;;;37.15;21.42;;;;;;;5.31;100.00;100398.91;4984657;28;20057;-65
2022/12/21 02:02:34;;;;;;;39.58;22.42;;;;;;;5.22;100.00;100397.53;4989276;28;20149;-65
2022/12/21 03:28:53;;;;;;;38.47;22.23;;;;;;;5.01;100.00;100360.09;4981317;28;20402;-65
2022/12/21 03:31:24;;;;;;;44.13;24.55;;;;;;;4.96;100.00;100366.41;4981916;28;20057;-65
2022/12/21 03:47:08;;;;;;;39.75;23.02;;;;;;;4.99;100.00;100355.84;4975511;28;20044;-64
2022/12/21 03:49:40;;;;;;;40.35;23.50;;;;;;;5.00;100.00;100353.19;4985605;28;20058;-64
2022/12/21 04:28:06;;;;;;;36.45;22.13;;;;;;;4.91;100.00;100345.75;4991194;28;20041;-64
2022/12/21 04:42:13;;;;;;;45.88;24.13;;;;;;;5.00;100.00;100336.69;4984291;28;20101;-64
2022/12/21 04:44:40;;;;;;;39.90;23.10;;;;;;;5.00;100.00;100332.31;4984499;28;20513;-69
2022/12/21 06:56:30;;;;;;;42.45;26.70;;;;;;;5.44;100.00;100324.38;4980791;28;20112;-64
2022/12/21 06:58:57;;;;;;;46.97;27.48;;;;;;;5.48;100.00;100341.63;4976452;28;20066;-63
2022/12/21 07:01:28;;;;;;;47.08;26.08;;;;;;;5.50;100.00;100336.34;4982446;28;20049;-63
2022/12/21 07:03:56;;;;;;;48.78;29.98;;;;;;;5.51;100.00;100332.81;4999454;28;20621;-64
2022/12/21 07:06:26;;;;;;;47.53;28.00;;;;;;;5.50;100.00;100333.75;4986015;28;20054;-64
2022/12/21 07:08:53;;;;;;;49.20;30.00;;;;;;;5.49;100.00;100334.63;4980352;28;20062;-64
2022/12/21 07:11:24;;;;;;;51.10;28.92;;;;;;;5.51;100.00;100330.22;4980497;28;20089;-63
2022/12/21 07:13:54;;;;;;;49.78;29.35;;;;;;;5.54;100.00;100340.53;4984510;28;20141;-63
2022/12/21 07:16:22;;;;;;;44.75;27.42;;;;;;;5.55;100.00;100337.00;4982503;28;20054;-63
2022/12/21 07:18:50;;;;;;;46.35;27.92;;;;;;;5.58;100.00;100334.22;4967153;28;20046;-64
2022/12/21 07:21:20;;;;;;;39.60;26.08;;;;;;;5.62;100.00;100332.34;4968734;28;20159;-64
2022/12/21 07:23:47;;;;;;;44.03;26.95;;;;;;;5.68;100.00;100345.16;4980783;28;20062;-62
2022/12/21 07:26:17;;;;;;;39.65;24.90;;;;;;;5.68;100.00;100334.72;4986044;28;20073;-63
2022/12/21 07:28:45;;;;;;;39.08;26.35;;;;;;;5.72;100.00;100341.47;4982507;28;20073;-63
2022/12/21 07:31:24;;;;;;;41.72;25.52;;;;;;;5.76;100.00;100337.81;4982114;28;20149;-64
2022/12/21 07:33:52;;;;;;;41.67;26.15;;;;;;;5.78;100.00;100349.06;4985177;28;20166;-64
2022/12/21 07:36:20;;;;;;;42.60;28.25;;;;;;;5.75;100.00;100351.81;4987787;28;20230;-63
2022/12/21 07:38:47;;;;;;;45.75;28.27;;;;;;;5.69;100.00;100339.88;4986532;28;20671;-64
2022/12/21 07:41:16;;;;;;;48.97;28.60;;;;;;;5.69;100.00;100339.88;4983547;28;20596;-63
2022/12/21 07:43:43;;;;;;;43.80;28.15;;;;;;;5.69;100.00;100339.88;4982349;28;20038;-63
2022/12/21 07:46:10;;;;;;;39.83;25.55;;;;;;;5.73;100.00;100336.22;4985250;28;20438;-62
2022/12/21 07:48:38;;;;;;;45.05;26.67;;;;;;;5.77;100.00;100339.53;4977271;28;20392;-63
2022/12/21 07:51:05;;;;;;;42.88;27.15;;;;;;;5.78;100.00;100322.94;4982803;28;20141;-63
2022/12/21 07:53:33;;;;;;;42.17;26.55;;;;;;;5.79;100.00;100335.94;4983347;28;20721;-64
2022/12/21 07:56:06;;;;;;;47.70;27.65;;;;;;;5.79;100.00;100340.31;4985361;28;20129;-62
2022/12/21 07:58:34;;;;;;;54.47;30.10;;;;;;;5.77;100.00;100344.75;4981219;28;20495;-63
2022/12/21 08:01:06;;;;;;;41.78;27.17;;;;;;;5.77;100.00;100342.16;4982491;28;20142;-64
2022/12/21 08:03:35;;;;;;;53.30;30.25;;;;;;;5.77;100.00;100350.84;4990471;23;21136;-86
2022/12/21 08:06:06;;;;;;;47.38;29.40;;;;;;;5.78;100.00;100362.13;4968173;28;20041;-84
2022/12/21 08:08:36;;;;;;;44.03;28.70;;;;;;;5.80;100.00;100368.97;4968613;28;20119;-85
2022/12/21 08:11:14;;;;;;;41.85;28.33;;;;;;;5.82;100.00;100358.47;4958394;28;20116;-83
2022/12/21 08:13:43;;;;;;;40.45;27.27;;;;;;;5.87;100.00;100368.72;4950343;28;20324;-83
2022/12/21 08:16:13;;;;;;;44.97;29.10;;;;;;;5.88;100.00;100367.78;4951025;28;20066;-86
2022/12/21 08:18:44;;;;;;;46.55;28.33;;;;;;;5.88;100.00;100363.41;4970299;28;20099;-84
2022/12/21 08:21:12;;;;;;;46.83;29.50;;;;;;;5.89;100.00;100361.66;4952668;28;20510;-84
2022/12/21 08:23:40;;;;;;;39.75;26.38;;;;;;;5.90;100.00;100364.22;4967970;28;20109;-85
2022/12/21 08:26:10;;;;;;;44.40;27.73;;;;;;;5.90;100.00;100369.44;4988275;28;20054;-85
2022/12/21 08:28:42;;;;;;;45.53;26.73;;;;;;;5.93;100.00;100374.53;4989741;28;20125;-85
2022/12/21 08:31:18;;;;;;;46.22;29.42;;;;;;;5.96;100.00;100376.19;4957776;28;20081;-84
2022/12/21 08:33:46;;;;;;;49.25;28.65;;;;;;;5.95;100.00;100380.56;4951626;28;20834;-85
2022/12/21 08:36:20;;;;;;;49.70;27.80;;;;;;;5.94;100.00;100391.91;4989552;28;20046;-85
2022/12/21 08:38:55;;;;;;;43.90;26.52;;;;;;;5.99;100.00;100395.19;4976902;28;20100;-84
2022/12/21 08:41:38;;;;;;;47.67;29.45;;;;;;;6.01;100.00;100387.28;4960443;28;20054;-83
2022/12/21 08:44:12;;;;;;;43.15;27.60;;;;;;;6.05;100.00;100387.06;4972428;28;20050;-85
2022/12/21 08:46:41;;;;;;;40.85;26.80;;;;;;;6.07;100.00;100385.22;4970382;28;20043;-84
2022/12/21 08:49:10;;;;;;;38.95;25.98;;;;;;;6.13;100.00;100383.28;4972008;28;20117;-84
2022/12/21 08:51:38;;;;;;;43.88;26.63;;;;;;;6.17;100.00;100387.44;4971343;28;20444;-83
2022/12/21 08:54:08;;;;;;;39.53;25.70;;;;;;;6.19;100.00;100370.78;4968024;28;20121;-86
2022/12/21 08:56:36;;;;;;;36.78;23.90;;;;;;;6.19;100.00;100369.94;4956528;28;20133;-84
2022/12/21 08:59:08;;;;;;;36.70;24.50;;;;;;;6.18;100.00;100371.69;4951413;28;20544;-85
2022/12/21 09:01:37;;;;;;;40.67;26.00;;;;;;;6.21;100.00;100371.53;4988220;28;20062;-84
2022/12/21 09:04:04;;;;;;;36.88;25.73;;;;;;;6.24;100.00;100378.41;4970150;28;20100;-85
2022/12/21 09:06:32;;;;;;;46.58;28.38;;;;;;;6.29;100.00;100376.44;4973677;28;20116;-84
2022/12/21 09:09:00;;;;;;;44.92;28.08;;;;;;;6.31;100.00;100383.31;4958412;28;20104;-84
2022/12/21 09:11:32;;;;;;;41.55;27.33;;;;;;;6.34;100.00;100379.69;4972973;28;20355;-84
2022/12/21 09:14:37;;;;;;;38.15;25.48;;;;;;;6.38;100.00;100373.41;4976595;28;20080;-85
2022/12/21 09:17:06;;;;;;;39.92;25.80;;;;;;;6.36;100.00;100375.25;4952422;28;20047;-86
2022/12/21 09:19:33;;;;;;;38.58;24.15;;;;;;;6.38;100.00;100365.56;4970477;28;20073;-86
2022/12/21 09:22:02;;;;;;;41.60;25.58;;;;;;;6.40;100.00;100368.13;4956643;28;20042;-84
2022/12/21 09:24:31;;;;;;;37.60;24.67;;;;;;;6.41;100.00;100368.03;4962539;28;21285;-86
2022/12/21 09:26:58;;;;;;;43.55;28.23;;;;;;;6.43;100.00;100373.19;4970360;28;20437;-85
2022/12/21 09:29:30;;;;;;;37.72;26.50;;;;;;;6.38;100.00;100362.09;4967157;28;20042;-84
2022/12/21 09:31:58;;;;;;;41.55;26.25;;;;;;;6.43;100.00;100366.19;4970678;28;20564;-85
2022/12/21 09:34:28;;;;;;;39.35;24.98;;;;;;;6.48;100.00;100369.44;4945606;28;20097;-85
2022/12/21 09:36:56;;;;;;;41.70;26.05;;;;;;;6.49;100.00;100381.63;4971625;28;20136;-85
2022/12/21 09:39:45;;;;;;;42.15;26.45;;;;;;;6.51;100.00;100374.53;4965378;28;20089;-83
2022/12/21 09:42:24;;;;;;;37.03;25.58;;;;;;;6.52;100.00;100376.22;4951761;28;20077;-84
2022/12/21 09:45:18;;;;;;;35.50;25.02;;;;;;;6.48;100.00;100372.06;4984481;28;20158;-86
2022/12/21 09:48:00;;;;;;;35.13;24.33;;;;;;;6.49;100.00;100380.78;4956475;28;20046;-85
2022/12/21 09:50:49;;;;;;;41.92;26.75;;;;;;;6.51;100.00;100382.38;4963287;28;20359;-85
2022/12/21 09:53:49;;;;;;;41.75;27.05;;;;;;;6.48;100.00;100376.44;4954879;28;20112;-84
2022/12/21 09:56:21;;;;;;;41.50;28.00;;;;;;;6.46;100.00;100373.91;4957455;28;20104;-86
2022/12/21 09:58:55;;;;;;;41.10;24.65;;;;;;;6.50;100.00;100380.69;4974003;28;20073;-85
2022/12/21 10:02:00;;;;;;;39.10;24.67;;;;;;;6.52;100.00;100376.22;4971785;28;20054;-85
2022/12/21 10:04:55;;;;;;;34.95;24.08;;;;;;;6.56;100.00;100375.16;4985137;28;20058;-85
2022/12/21 10:07:47;;;;;;;39.10;26.25;;;;;;;6.54;100.00;100377.03;4967187;28;20104;-84
2022/12/21 10:10:32;;;;;;;42.45;25.55;;;;;;;6.59;100.00;100369.81;4969503;28;20058;-86
2022/12/21 10:13:20;;;;;;;36.00;24.25;;;;;;;6.65;100.00;100355.59;4988834;28;20050;-84
2022/12/21 10:16:12;;;;;;;34.92;23.42;;;;;;;6.67;100.00;100361.63;4962170;28;20092;-84
2022/12/21 10:18:54;;;;;;;38.72;25.33;;;;;;;6.64;100.00;100361.75;4953335;28;20054;-84
2022/12/21 10:21:45;;;;;;;37.20;24.55;;;;;;;6.59;100.00;100367.19;4953814;28;20077;-84
2022/12/21 10:24:24;;;;;;;39.67;25.77;;;;;;;6.62;100.00;100366.22;4985607;28;20065;-86
2022/12/21 10:26:55;;;;;;;41.42;26.52;;;;;;;6.64;100.00;100366.13;4971611;28;20489;-85
2022/12/21 10:29:53;;;;;;;33.63;22.52;;;;;;;6.67;100.00;100363.38;4958323;28;20133;-83
2022/12/21 10:32:22;;;;;;;38.92;24.38;;;;;;;6.62;100.00;100355.75;4945857;28;20133;-83
2022/12/21 10:34:53;;;;;;;39.70;24.70;;;;;;;6.64;100.00;100358.28;4971270;28;20078;-84
2022/12/21 10:37:47;;;;;;;35.88;24.48;;;;;;;6.62;100.00;100353.13;4955181;28;20050;-83
2022/12/21 10:40:15;;;;;;;39.92;25.77;;;;;;;6.65;100.00;100341.66;4949827;28;20419;-82
2022/12/21 10:42:49;;;;;;;41.63;26.70;;;;;;;6.68;100.00;100346.75;4972161;28;20062;-83
2022/12/21 10:45:19;;;;;;;;;;;;;;;6.67;100.00;100334.63;4957929;28;20054;-86
2022/12/21 10:47:54;;;;;;;36.80;24.42;;;;;;;6.71;100.00;100338.75;4948899;28;19992;-83
2022/12/21 10:50:32;;;;;;;37.70;24.75;;;;;;;6.69;100.00;100338.00;4952291;28;20046;-85
2022/12/21 10:53:22;;;;;;;44.72;25.83;;;;;;;6.70;100.00;100332.69;4953537;28;20051;-85
2022/12/21 10:55:57;;;;;;;35.70;25.52;;;;;;;6.74;100.00;100333.38;4971101;28;20080;-87
2022/12/21 10:58:27;;;;;;;40.38;26.20;;;;;;;6.75;100.00;100325.44;4970874;28;20034;-85
2022/12/21 11:01:00;;;;;;;33.70;22.98;;;;;;;6.80;100.00;100335.72;4946902;28;20038;-85
2022/12/21 11:03:31;;;;;;;42.33;27.17;;;;;;;6.80;100.00;100327.88;4964579;28;20065;-83
2022/12/21 11:06:11;;;;;;;42.63;26.30;;;;;;;6.77;100.00;100328.00;4962696;28;20042;-84
2022/12/21 11:08:51;;;;;;;40.00;25.88;;;;;;;6.77;100.00;100330.63;4936243;28;20521;-86
2022/12/21 11:11:33;;;;;;;42.33;26.48;;;;;;;6.78;100.00;100322.69;4985740;28;20144;-85
2022/12/21 11:14:14;;;;;;;37.25;25.20;;;;;;;6.83;100.00;100317.25;4966941;28;20066;-85
2022/12/21 11:16:45;;;;;;;40.17;25.33;;;;;;;6.89;100.00;100316.97;4964222;28;20042;-83
2022/12/21 11:19:15;;;;;;;37.60;24.13;;;;;;;6.94;100.00;100312.34;4966517;28;20054;-86
2022/12/21 11:21:51;;;;;;;34.20;23.63;;;;;;;6.97;100.00;100320.03;4951029;28;20341;-86
2022/12/21 11:24:39;;;;;;;35.35;24.75;;;;;;;6.97;100.00;100320.03;4964779;28;20075;-86
2022/12/21 11:27:12;;;;;;;37.33;24.13;;;;;;;6.99;100.00;100312.13;4951809;28;20082;-83
2022/12/21 11:29:51;;;;;;;37.35;24.73;;;;;;;7.04;100.00;100305.72;4986337;28;20076;-85
2022/12/21 11:32:19;;;;;;;35.78;26.08;;;;;;;7.03;100.00;100316.28;4969387;28;20440;-84
2022/12/21 11:35:01;;;;;;;33.47;24.15;;;;;;;7.06;100.00;100306.50;4982339;28;20125;-83
2022/12/21 11:37:35;;;;;;;37.00;25.35;;;;;;;7.03;100.00;100311.91;4969926;28;20070;-84
2022/12/21 11:40:12;;;;;;;35.88;25.13;;;;;;;7.00;100.00;100306.81;4986673;28;20077;-85
2022/12/21 11:42:51;;;;;;;40.15;26.27;;;;;;;6.98;100.00;100295.59;4970763;28;20146;-84
2022/12/21 11:45:53;;;;;;;32.80;22.98;;;;;;;6.99;100.00;100289.41;4967327;28;20078;-85
2022/12/21 11:49:06;;;;;;;34.95;24.75;;;;;;;7.07;100.00;100286.44;4969298;28;20150;-84
2022/12/21 11:52:12;;;;;;;32.13;22.95;;;;;;;7.12;100.00;100286.19;4964956;28;20109;-84
2022/12/21 11:54:49;;;;;;;36.50;24.35;;;;;;;7.18;100.00;100283.25;4950503;28;20097;-84
2022/12/21 11:57:31;;;;;;;33.67;23.65;;;;;;;7.21;100.00;100291.81;4952363;28;20056;-86
2022/12/21 12:00:07;;;;;;;31.90;22.33;;;;;;;7.23;100.00;100283.88;4968419;28;20050;-84
2022/12/21 12:03:28;;;;;;;29.73;22.70;;;;;;;7.26;100.00;100289.81;4966249;28;20410;-84
2022/12/21 12:06:18;;;;;;;36.05;23.60;;;;;;;7.31;100.00;100300.03;4965266;28;20039;-85
2022/12/21 12:08:49;;;;;;;32.67;23.77;;;;;;;7.34;100.00;100298.13;4962936;28;20113;-89
2022/12/21 12:11:42;;;;;;;32.80;23.77;;;;;;;7.28;100.00;100295.78;4965158;28;20233;-85
2022/12/21 12:14:32;;;;;;;32.58;24.25;;;;;;;7.29;100.00;100294.03;4955055;28;20046;-86
2022/12/21 12:17:13;;;;;;;33.65;24.98;;;;;;;7.27;100.00;100275.78;4967216;28;20061;-85
2022/12/21 12:19:50;;;;;;;34.97;23.58;;;;;;;7.27;100.00;100277.56;4953200;28;20078;-85
2022/12/21 12:22:46;;;;;;;31.80;22.48;;;;;;;7.33;100.00;100274.63;4972740;28;20040;-85
2022/12/21 12:25:20;;;;;;;30.15;22.23;;;;;;;7.37;100.00;100278.78;4966880;28;20054;-85
2022/12/21 12:28:10;;;;;;;31.27;22.92;;;;;;;7.34;100.00;100276.34;4951135;28;20109;-86
2022/12/21 12:31:15;;;;;;;36.90;23.88;;;;;;;7.30;100.00;100278.25;4979161;28;20085;-86
2022/12/21 12:34:08;;;;;;;30.40;23.25;;;;;;;7.30;100.00;100280.03;4952018;28;20066;-85
2022/12/21 12:37:00;;;;;;;35.95;25.35;;;;;;;7.30;100.00;100275.63;4954152;28;20681;-85
2022/12/21 12:39:46;;;;;;;31.48;22.35;;;;;;;7.33;100.00;100280.69;4980774;28;20043;-87
2022/12/21 14:34:57;;;;;;;26.88;18.10;;;;;;;7.67;100.00;100233.59;4986363;28;20100;-86
2022/12/21 14:37:29;;;;;;;30.42;19.10;;;;;;;7.64;100.00;100233.75;4942872;28;20322;-88
2022/12/21 14:53:00;;;;;;;24.88;17.42;;;;;;;7.59;100.00;100262.81;4979057;28;20133;-89
2022/12/21 14:55:46;;;;;;;24.38;17.75;;;;;;;7.50;100.00;100237.94;4975676;28;20087;-90
2022/12/21 14:58:53;;;;;;;23.73;17.00;;;;;;;7.49;100.00;100238.03;4960506;28;20043;-91
2022/12/21 15:01:40;;;;;;;23.88;17.52;;;;;;;7.54;100.00;100242.09;5003512;28;20097;-91
2022/12/21 15:12:51;;;;;;;21.48;14.57;;;;;;;7.56;100.00;100239.38;4982943;28;20524;-89
2022/12/21 15:19:47;;;;;;;19.23;14.27;;;;;;;7.61;100.00;100233.00;4987817;28;20038;-90
2022/12/21 15:22:52;;;;;;;22.45;15.50;;;;;;;7.65;100.00;100228.41;4963548;28;20054;-90
2022/12/21 15:39:50;;;;;;;21.23;14.55;;;;;;;7.61;100.00;100243.47;4995394;28;20060;-90
2022/12/21 15:47:24;;;;;;;18.70;14.07;;;;;;;7.65;100.00;100236.28;4998342;28;20607;-89
2022/12/21 15:55:17;;;;;;;19.08;13.85;;;;;;;7.70;100.00;100215.06;4927388;28;20039;-89
2022/12/21 16:01:58;;;;;;;22.65;15.70;;;;;;;7.64;100.00;100215.41;4891928;28;20054;-90
2022/12/21 16:09:50;;;;;;;21.80;14.55;;;;;;;7.59;100.00;100207.78;4924859;28;20050;-89
2022/12/21 16:29:21;;;;;;;17.00;12.75;;;;;;;7.56;100.00;100239.38;4942244;29;20039;-90
2022/12/21 16:37:20;;;;;;;21.15;14.65;;;;;;;7.47;100.00;100245.94;4929422;29;20101;-90
2022/12/21 16:44:58;;;;;;;19.83;15.18;;;;;;;7.42;100.00;100241.88;4927856;29;20039;-90
2022/12/21 16:52:03;;;;;;;16.83;12.45;;;;;;;7.39;100.00;100237.66;5011572;28;20050;-89
2022/12/21 17:31:31;;;;;;;15.90;11.00;;;;;;;7.47;100.00;100243.31;4987764;28;20185;-90
2022/12/21 17:46:52;;;;;;;16.77;12.40;;;;;;;7.51;100.00;100247.47;5008036;28;20061;-91
2022/12/21 17:53:53;;;;;;;19.25;12.98;;;;;;;7.46;100.00;100246.03;4931835;29;20043;-90
2022/12/21 18:05:26;;;;;;;19.75;13.00;;;;;;;7.52;100.00;100245.69;4937064;28;20088;-90
2022/12/21 18:12:35;;;;;;;16.73;12.00;;;;;;;7.57;100.00;100244.56;4941537;29;20050;-89
2022/12/21 18:15:09;;;;;;;16.40;11.63;;;;;;;7.59;100.00;100247.94;4945913;29;20055;-90
2022/12/21 18:18:03;;;;;;;17.20;12.23;;;;;;;7.60;100.00;100244.38;4940918;29;20066;-89
2022/12/21 18:20:44;;;;;;;15.95;12.05;;;;;;;7.64;100.00;100238.97;4913868;29;20048;-89
2022/12/21 18:23:40;;;;;;;15.48;10.50;;;;;;;7.63;100.00;100237.28;4917229;29;20063;-91
2022/12/21 18:26:18;;;;;;;14.90;11.30;;;;;;;7.65;100.00;100236.28;4940280;29;20047;-89
2022/12/21 18:33:12;;;;;;;13.57;10.90;;;;;;;7.61;100.00;100230.38;4962788;28;20121;-89
2022/12/21 18:36:00;;;;;;;15.13;11.27;;;;;;;7.62;100.00;100239.06;4968465;28;20046;-91
2022/12/21 18:38:38;;;;;;;12.35;9.90;;;;;;;7.63;100.00;100240.75;4972989;28;20046;-91
2022/12/21 18:42:04;;;;;;;13.38;10.80;;;;;;;7.64;100.00;100229.34;4986508;28;20034;-94
2022/12/21 18:44:50;;;;;;;14.85;10.90;;;;;;;7.67;100.00;100231.81;4986356;28;20476;-91
2022/12/21 18:57:44;;;;;;;16.70;11.80;;;;;;;7.64;100.00;100204.91;4945086;29;20042;-93
2022/12/21 19:00:22;;;;;;;14.45;11.15;;;;;;;7.60;100.00;100209.47;4938255;29;20134;-91
2022/12/21 19:02:53;;;;;;;13.63;11.30;;;;;;;7.58;100.00;100216.59;4946941;29;20128;-95
2022/12/21 19:05:42;;;;;;;12.13;10.40;;;;;;;7.61;100.00;100213.81;4950781;28;20050;-92
2022/12/21 19:08:20;;;;;;;15.80;12.27;;;;;;;7.60;100.00;100223.41;4980791;28;20027;-96
2022/12/21 19:10:49;;;;;;;16.75;11.68;;;;;;;7.63;100.00;100216.34;4979100;28;20045;-93
2022/12/21 19:13:30;;;;;;;13.90;11.98;;;;;;;7.60;100.00;100222.56;4952770;28;20061;-93
2022/12/21 19:16:03;;;;;;;13.55;11.13;;;;;;;7.60;100.00;100225.19;4957723;28;20493;-89
2022/12/21 22:07:40;;;;;;;16.83;13.90;;;;;;;7.32;100.00;100208.31;4987030;28;20073;-96
2022/12/21 22:10:43;;;;;;;18.08;13.00;;;;;;;7.26;100.00;100211.25;4987739;28;20049;-95
2022/12/21 22:47:58;;;;;;;19.83;15.57;;;;;;;6.89;100.00;100198.34;4961921;28;20173;-94
2022/12/21 22:59:24;;;;;;;21.98;15.90;;;;;;;6.81;100.00;100180.44;4981118;28;20088;-93
2022/12/21 23:18:33;;;;;;;18.45;15.65;;;;;;;6.67;100.00;100146.28;5006540;28;20053;-65
2022/12/21 23:44:15;;;;;;;15.98;14.27;;;;;;;6.58;100.00;100130.13;4989823;28;20083;-65
